createdAt,value
2022-07-26T00:06:42.227Z,23.70
2022-07-26T00:16:46.643Z,23.70
2022-07-26T00:26:48.145Z,23.50
2022-07-26T00:36:50.030Z,23.10
2022-07-26T00:46:52.066Z,22.90
2022-07-26T00:56:55.270Z,22.70
2022-07-26T01:06:57.866Z,22.40
2022-07-26T01:16:59.926Z,22.20
2022-07-26T01:27:02.407Z,22.20
2022-07-26T01:37:05.847Z,22.00
2022-07-26T01:47:07.409Z,21.70
2022-07-26T01:57:09.965Z,21.50
2022-07-26T02:07:13.396Z,21.30
2022-07-26T02:17:15.191Z,21.10
2022-07-26T02:27:16.947Z,21.00
2022-07-26T02:37:18.809Z,20.90
2022-07-26T02:47:20.666Z,21.30
2022-07-26T02:57:22.067Z,21.10
2022-07-26T03:07:23.565Z,21.10
2022-07-26T03:17:25.147Z,21.20
2022-07-26T03:27:27.501Z,21.20
2022-07-26T03:37:44.832Z,21.30
2022-07-26T03:47:49.628Z,21.50
2022-07-26T03:57:51.366Z,21.20
2022-07-26T04:07:53.752Z,21.10
2022-07-26T04:17:55.609Z,21.20
2022-07-26T04:27:57.367Z,21.20
2022-07-26T04:37:59.310Z,21.30
2022-07-26T04:48:02.311Z,21.30
2022-07-26T04:58:03.988Z,21.10
2022-07-26T05:08:05.946Z,21.10
2022-07-26T05:18:10.664Z,21.10
2022-07-26T05:28:17.095Z,21.20
2022-07-26T05:38:18.888Z,21.00
2022-07-26T05:48:20.929Z,21.10
2022-07-26T05:58:22.647Z,21.20
2022-07-26T06:08:27.289Z,20.90
2022-07-26T06:18:29.090Z,20.90
2022-07-26T06:28:30.766Z,20.90
2022-07-26T06:38:33.174Z,20.90
2022-07-26T06:48:35.248Z,21.10
2022-07-26T06:58:37.191Z,21.00
2022-07-26T07:08:38.970Z,21.20
2022-07-26T07:18:42.933Z,21.50
2022-07-26T07:28:45.791Z,21.80
2022-07-26T07:38:51.772Z,22.40
2022-07-26T07:48:53.498Z,23.40
2022-07-26T07:58:55.550Z,23.70
2022-07-26T08:08:57.829Z,23.70
2022-07-26T08:19:00.073Z,24.60
2022-07-26T08:29:03.213Z,24.90
2022-07-26T08:39:05.813Z,25.60
2022-07-26T08:49:09.814Z,25.50
2022-07-26T08:59:21.682Z,25.20
2022-07-26T09:09:26.110Z,26.60
2022-07-26T09:19:28.411Z,25.90
2022-07-26T09:29:31.829Z,26.90
2022-07-26T09:39:34.360Z,26.60
2022-07-26T09:49:40.146Z,25.90
2022-07-26T09:59:43.872Z,26.10
2022-07-26T10:10:02.345Z,26.70
2022-07-26T10:20:09.382Z,26.00
2022-07-26T10:30:34.154Z,26.50
2022-07-26T10:40:40.348Z,25.80
2022-07-26T10:50:44.632Z,26.30
2022-07-26T11:00:58.389Z,27.80
2022-07-26T11:11:01.229Z,28.50
2022-07-26T11:21:17.767Z,27.50
2022-07-26T11:31:21.167Z,28.50
2022-07-26T11:41:34.549Z,28.30
2022-07-26T11:51:39.352Z,29.70
2022-07-26T12:01:43.270Z,29.20
2022-07-26T12:11:54.313Z,28.50
2022-07-26T12:22:19.149Z,28.50
2022-07-26T12:32:37.326Z,27.80
2022-07-26T12:42:43.489Z,27.70
2022-07-26T12:52:46.140Z,29.60
2022-07-26T13:02:51.170Z,28.90
2022-07-26T13:12:54.272Z,30.20
2022-07-26T13:22:56.255Z,30.80
2022-07-26T13:32:58.170Z,29.60
2022-07-26T13:42:59.950Z,29.10
2022-07-26T13:53:02.292Z,28.40
2022-07-26T14:03:04.168Z,29.30
2022-07-26T14:13:05.987Z,30.50
2022-07-26T14:23:07.670Z,31.00
2022-07-26T14:33:09.349Z,30.50
2022-07-26T14:43:10.911Z,29.60
2022-07-26T14:53:16.467Z,28.90
2022-07-26T15:03:17.989Z,28.40
2022-07-26T15:13:23.428Z,28.10
2022-07-26T15:23:25.468Z,27.90
2022-07-26T15:33:28.449Z,27.70
2022-07-26T15:43:47.953Z,27.90
2022-07-26T15:53:52.931Z,27.50
2022-07-26T16:04:01.810Z,27.50
2022-07-26T16:14:04.832Z,27.90
2022-07-26T16:24:07.655Z,27.50
2022-07-26T16:34:10.407Z,27.00
2022-07-26T16:44:12.690Z,27.00
2022-07-26T16:54:14.969Z,26.90
2022-07-26T17:04:18.009Z,27.00
2022-07-26T17:14:19.670Z,26.60
2022-07-26T17:24:21.410Z,26.40
2022-07-26T17:34:23.632Z,26.20
2022-07-26T17:44:25.472Z,26.10
2022-07-26T17:54:28.049Z,26.00
2022-07-26T18:04:29.565Z,25.80
2022-07-26T18:14:31.549Z,25.60
2022-07-26T18:24:33.514Z,25.40
2022-07-26T18:34:35.131Z,25.30
2022-07-26T18:44:40.893Z,25.10
2022-07-26T18:54:42.809Z,24.80
2022-07-26T19:04:44.469Z,24.80
2022-07-26T19:15:24.739Z,24.60
2022-07-26T19:25:26.597Z,24.50
2022-07-26T19:35:28.419Z,24.20
2022-07-26T19:45:30.940Z,24.00
2022-07-26T19:55:32.937Z,23.90
2022-07-26T20:05:34.635Z,23.80
2022-07-26T20:15:36.411Z,23.60
2022-07-26T20:25:37.954Z,23.40
2022-07-26T20:35:39.736Z,23.20
2022-07-26T20:45:45.572Z,23.10
2022-07-26T20:55:47.574Z,22.90
2022-07-26T21:05:49.680Z,23.00
2022-07-26T21:15:57.116Z,22.90
2022-07-26T21:26:01.157Z,22.70
2022-07-26T21:36:02.761Z,22.70
2022-07-26T21:46:07.844Z,22.60
2022-07-26T21:56:15.298Z,22.50
2022-07-26T22:06:18.698Z,22.50
2022-07-26T22:16:25.169Z,22.40
2022-07-26T22:26:34.894Z,22.20
2022-07-26T22:36:36.272Z,22.10
2022-07-26T22:46:38.658Z,22.00
2022-07-26T22:56:42.155Z,21.90
2022-07-26T23:06:44.629Z,21.80
2022-07-26T23:16:46.752Z,21.60
2022-07-26T23:38:18.232Z,21.10
2022-07-26T23:48:19.852Z,21.00
2022-07-26T23:58:21.570Z,20.80
